sensor_id;sensor_type;location;lat;lon;timestamp;P1;durP1;ratioP1;P2;durP2;ratioP2
71427;SDS011;59246;59.102;37.928;2022-07-29T00:00:07;0.60;;;0.60;;
71427;SDS011;59246;59.102;37.928;2022-07-29T00:02:34;0.85;;;0.50;;
71427;SDS011;59246;59.102;37.928;2022-07-29T00:05:00;1.10;;;0.47;;
71427;SDS011;59246;59.102;37.928;2022-07-29T00:07:26;0.35;;;0.35;;
71427;SDS011;59246;59.102;37.928;2022-07-29T00:09:51;0.30;;;0.30;;
71427;SDS011;59246;59.102;37.928;2022-07-29T00:12:18;0.50;;;0.40;;
71427;SDS011;59246;59.102;37.928;2022-07-29T00:14:44;0.30;;;0.30;;
71427;SDS011;59246;59.102;37.928;2022-07-29T00:17:10;0.47;;;0.40;;
71427;SDS011;59246;59.102;37.928;2022-07-29T00:19:36;0.30;;;0.30;;
71427;SDS011;59246;59.102;37.928;2022-07-29T00:22:01;2.42;;;0.70;;
71427;SDS011;59246;59.102;37.928;2022-07-29T00:24:27;0.80;;;0.70;;
71427;SDS011;59246;59.102;37.928;2022-07-29T00:26:53;2.45;;;1.20;;
71427;SDS011;59246;59.102;37.928;2022-07-29T00:29:18;4.43;;;2.58;;
71427;SDS011;59246;59.102;37.928;2022-07-29T00:31:44;6.03;;;3.17;;
71427;SDS011;59246;59.102;37.928;2022-07-29T00:34:10;8.02;;;2.40;;
71427;SDS011;59246;59.102;37.928;2022-07-29T00:36:55;19.10;;;4.27;;
71427;SDS011;59246;59.102;37.928;2022-07-29T00:39:20;14.70;;;4.40;;
71427;SDS011;59246;59.102;37.928;2022-07-29T00:41:46;4.82;;;2.72;;
71427;SDS011;59246;59.102;37.928;2022-07-29T00:44:12;3.45;;;2.50;;
71427;SDS011;59246;59.102;37.928;2022-07-29T00:46:38;14.68;;;4.30;;
71427;SDS011;59246;59.102;37.928;2022-07-29T00:49:03;12.70;;;4.07;;
71427;SDS011;59246;59.102;37.928;2022-07-29T00:51:29;16.67;;;6.80;;
71427;SDS011;59246;59.102;37.928;2022-07-29T00:53:55;19.08;;;9.32;;
71427;SDS011;59246;59.102;37.928;2022-07-29T00:56:22;22.00;;;8.70;;
71427;SDS011;59246;59.102;37.928;2022-07-29T00:58:47;28.65;;;10.88;;
71427;SDS011;59246;59.102;37.928;2022-07-29T01:01:15;23.77;;;9.77;;
71427;SDS011;59246;59.102;37.928;2022-07-29T01:03:41;28.40;;;13.05;;
71427;SDS011;59246;59.102;37.928;2022-07-29T01:06:07;35.92;;;14.60;;
71427;SDS011;59246;59.102;37.928;2022-07-29T01:08:33;45.72;;;18.30;;
71427;SDS011;59246;59.102;37.928;2022-07-29T01:10:59;59.85;;;24.65;;
71427;SDS011;59246;59.102;37.928;2022-07-29T01:13:26;77.90;;;34.72;;
71427;SDS011;59246;59.102;37.928;2022-07-29T01:16:10;76.32;;;34.40;;
71427;SDS011;59246;59.102;37.928;2022-07-29T01:18:44;64.95;;;28.45;;
71427;SDS011;59246;59.102;37.928;2022-07-29T01:26:59;74.78;;;27.50;;
71427;SDS011;59246;59.102;37.928;2022-07-29T01:29:57;63.53;;;26.02;;
71427;SDS011;59246;59.102;37.928;2022-07-29T01:32:28;50.25;;;24.30;;
71427;SDS011;59246;59.102;37.928;2022-07-29T01:35:16;59.90;;;27.40;;
71427;SDS011;59246;59.102;37.928;2022-07-29T01:37:47;40.25;;;18.67;;
71427;SDS011;59246;59.102;37.928;2022-07-29T01:43:14;51.75;;;19.08;;
71427;SDS011;59246;59.102;37.928;2022-07-29T01:46:04;38.83;;;16.67;;
71427;SDS011;59246;59.102;37.928;2022-07-29T01:48:41;34.65;;;12.45;;
71427;SDS011;59246;59.102;37.928;2022-07-29T01:56:58;33.38;;;11.73;;
71427;SDS011;59246;59.102;37.928;2022-07-29T01:59:25;36.50;;;9.90;;
71427;SDS011;59246;59.102;37.928;2022-07-29T02:01:53;31.50;;;11.25;;
71427;SDS011;59246;59.102;37.928;2022-07-29T02:04:20;24.35;;;11.88;;
71427;SDS011;59246;59.102;37.928;2022-07-29T02:06:47;32.85;;;12.07;;
71427;SDS011;59246;59.102;37.928;2022-07-29T02:09:15;42.28;;;14.38;;
71427;SDS011;59246;59.102;37.928;2022-07-29T02:11:53;38.58;;;17.65;;
71427;SDS011;59246;59.102;37.928;2022-07-29T02:14:21;34.50;;;15.35;;
71427;SDS011;59246;59.102;37.928;2022-07-29T02:16:48;35.67;;;14.73;;
71427;SDS011;59246;59.102;37.928;2022-07-29T02:19:17;37.53;;;14.88;;
71427;SDS011;59246;59.102;37.928;2022-07-29T02:21:44;36.38;;;14.45;;
71427;SDS011;59246;59.102;37.928;2022-07-29T02:24:11;37.78;;;16.40;;
71427;SDS011;59246;59.102;37.928;2022-07-29T02:26:39;41.50;;;18.58;;
71427;SDS011;59246;59.102;37.928;2022-07-29T02:29:08;49.88;;;23.45;;
71427;SDS011;59246;59.102;37.928;2022-07-29T02:31:44;51.58;;;20.58;;
71427;SDS011;59246;59.102;37.928;2022-07-29T02:34:12;51.00;;;22.27;;
71427;SDS011;59246;59.102;37.928;2022-07-29T02:36:40;39.30;;;19.52;;
71427;SDS011;59246;59.102;37.928;2022-07-29T02:39:09;28.60;;;15.18;;
71427;SDS011;59246;59.102;37.928;2022-07-29T02:41:40;32.33;;;13.77;;
71427;SDS011;59246;59.102;37.928;2022-07-29T02:44:11;26.90;;;11.95;;
71427;SDS011;59246;59.102;37.928;2022-07-29T02:46:41;22.45;;;10.20;;
71427;SDS011;59246;59.102;37.928;2022-07-29T02:51:58;17.92;;;6.45;;
71427;SDS011;59246;59.102;37.928;2022-07-29T02:57:00;7.80;;;5.22;;
71427;SDS011;59246;59.102;37.928;2022-07-29T02:59:31;20.08;;;9.02;;
71427;SDS011;59246;59.102;37.928;2022-07-29T03:02:03;26.98;;;8.68;;
71427;SDS011;59246;59.102;37.928;2022-07-29T03:04:30;31.83;;;11.20;;
71427;SDS011;59246;59.102;37.928;2022-07-29T03:06:58;21.65;;;10.32;;
71427;SDS011;59246;59.102;37.928;2022-07-29T03:09:25;25.92;;;11.07;;
71427;SDS011;59246;59.102;37.928;2022-07-29T03:11:53;25.23;;;12.43;;
71427;SDS011;59246;59.102;37.928;2022-07-29T03:14:20;32.67;;;13.57;;
71427;SDS011;59246;59.102;37.928;2022-07-29T03:16:48;34.60;;;16.27;;
71427;SDS011;59246;59.102;37.928;2022-07-29T03:19:15;43.00;;;19.52;;
71427;SDS011;59246;59.102;37.928;2022-07-29T03:21:41;38.17;;;19.48;;
71427;SDS011;59246;59.102;37.928;2022-07-29T03:24:07;39.80;;;21.38;;
71427;SDS011;59246;59.102;37.928;2022-07-29T03:26:33;37.60;;;22.58;;
71427;SDS011;59246;59.102;37.928;2022-07-29T03:28:59;51.28;;;25.52;;
71427;SDS011;59246;59.102;37.928;2022-07-29T03:31:24;49.28;;;26.35;;
71427;SDS011;59246;59.102;37.928;2022-07-29T03:33:50;48.45;;;25.05;;
71427;SDS011;59246;59.102;37.928;2022-07-29T03:36:16;42.85;;;24.83;;
71427;SDS011;59246;59.102;37.928;2022-07-29T03:38:42;38.00;;;22.55;;
71427;SDS011;59246;59.102;37.928;2022-07-29T03:41:10;31.27;;;17.25;;
71427;SDS011;59246;59.102;37.928;2022-07-29T03:43:37;27.63;;;15.70;;
71427;SDS011;59246;59.102;37.928;2022-07-29T03:46:06;28.30;;;16.10;;
71427;SDS011;59246;59.102;37.928;2022-07-29T03:48:34;36.40;;;16.63;;
71427;SDS011;59246;59.102;37.928;2022-07-29T03:51:05;34.92;;;19.35;;
71427;SDS011;59246;59.102;37.928;2022-07-29T03:53:31;34.72;;;19.98;;
71427;SDS011;59246;59.102;37.928;2022-07-29T03:55:58;44.83;;;25.92;;
71427;SDS011;59246;59.102;37.928;2022-07-29T03:58:27;52.90;;;29.80;;
71427;SDS011;59246;59.102;37.928;2022-07-29T04:00:54;53.22;;;32.50;;
71427;SDS011;59246;59.102;37.928;2022-07-29T04:03:20;53.42;;;28.45;;
71427;SDS011;59246;59.102;37.928;2022-07-29T04:06:07;57.72;;;28.13;;
71427;SDS011;59246;59.102;37.928;2022-07-29T04:08:32;40.35;;;24.33;;
71427;SDS011;59246;59.102;37.928;2022-07-29T04:10:59;43.22;;;27.98;;
71427;SDS011;59246;59.102;37.928;2022-07-29T04:13:26;42.20;;;22.27;;
71427;SDS011;59246;59.102;37.928;2022-07-29T04:15:51;37.55;;;21.33;;
71427;SDS011;59246;59.102;37.928;2022-07-29T04:18:17;33.83;;;19.38;;
71427;SDS011;59246;59.102;37.928;2022-07-29T04:20:42;32.95;;;18.98;;
71427;SDS011;59246;59.102;37.928;2022-07-29T04:23:08;32.17;;;16.60;;
71427;SDS011;59246;59.102;37.928;2022-07-29T04:25:36;29.58;;;17.33;;
71427;SDS011;59246;59.102;37.928;2022-07-29T04:28:04;26.08;;;14.48;;
71427;SDS011;59246;59.102;37.928;2022-07-29T04:30:33;30.48;;;14.52;;
71427;SDS011;59246;59.102;37.928;2022-07-29T04:33:04;35.90;;;14.45;;
71427;SDS011;59246;59.102;37.928;2022-07-29T04:35:33;33.92;;;14.85;;
71427;SDS011;59246;59.102;37.928;2022-07-29T04:38:05;37.75;;;14.27;;
71427;SDS011;59246;59.102;37.928;2022-07-29T04:40:33;47.25;;;16.55;;
71427;SDS011;59246;59.102;37.928;2022-07-29T04:43:02;34.75;;;16.20;;
71427;SDS011;59246;59.102;37.928;2022-07-29T04:45:34;41.72;;;18.98;;
71427;SDS011;59246;59.102;37.928;2022-07-29T04:48:05;33.72;;;16.33;;
71427;SDS011;59246;59.102;37.928;2022-07-29T04:50:38;29.85;;;15.45;;
71427;SDS011;59246;59.102;37.928;2022-07-29T04:53:04;25.60;;;14.23;;
71427;SDS011;59246;59.102;37.928;2022-07-29T04:55:30;32.47;;;15.55;;
71427;SDS011;59246;59.102;37.928;2022-07-29T04:57:56;25.77;;;14.18;;
71427;SDS011;59246;59.102;37.928;2022-07-29T05:00:22;34.47;;;12.82;;
71427;SDS011;59246;59.102;37.928;2022-07-29T05:02:50;28.27;;;14.95;;
71427;SDS011;59246;59.102;37.928;2022-07-29T05:05:16;31.58;;;16.38;;
71427;SDS011;59246;59.102;37.928;2022-07-29T05:07:42;36.35;;;13.80;;
71427;SDS011;59246;59.102;37.928;2022-07-29T05:10:08;36.80;;;15.13;;
71427;SDS011;59246;59.102;37.928;2022-07-29T05:12:34;31.38;;;13.27;;
71427;SDS011;59246;59.102;37.928;2022-07-29T05:15:00;22.38;;;9.27;;
71427;SDS011;59246;59.102;37.928;2022-07-29T05:17:25;26.60;;;10.77;;
71427;SDS011;59246;59.102;37.928;2022-07-29T05:19:51;37.33;;;13.30;;
71427;SDS011;59246;59.102;37.928;2022-07-29T05:22:20;30.67;;;14.10;;
71427;SDS011;59246;59.102;37.928;2022-07-29T05:24:46;34.20;;;16.15;;
71427;SDS011;59246;59.102;37.928;2022-07-29T05:27:12;35.35;;;16.58;;
71427;SDS011;59246;59.102;37.928;2022-07-29T05:29:38;39.90;;;16.67;;
71427;SDS011;59246;59.102;37.928;2022-07-29T05:32:04;38.75;;;20.27;;
71427;SDS011;59246;59.102;37.928;2022-07-29T05:34:30;35.63;;;19.05;;
71427;SDS011;59246;59.102;37.928;2022-07-29T05:36:56;23.33;;;10.35;;
71427;SDS011;59246;59.102;37.928;2022-07-29T05:39:22;20.52;;;7.32;;
71427;SDS011;59246;59.102;37.928;2022-07-29T05:41:48;27.58;;;9.30;;
71427;SDS011;59246;59.102;37.928;2022-07-29T05:44:14;36.00;;;17.67;;
71427;SDS011;59246;59.102;37.928;2022-07-29T05:46:40;35.45;;;15.80;;
71427;SDS011;59246;59.102;37.928;2022-07-29T05:49:06;43.00;;;16.55;;
71427;SDS011;59246;59.102;37.928;2022-07-29T05:51:32;25.23;;;11.65;;
71427;SDS011;59246;59.102;37.928;2022-07-29T05:53:59;26.67;;;10.95;;
71427;SDS011;59246;59.102;37.928;2022-07-29T05:56:24;26.60;;;10.93;;
71427;SDS011;59246;59.102;37.928;2022-07-29T05:58:50;35.55;;;12.48;;
71427;SDS011;59246;59.102;37.928;2022-07-29T06:01:16;29.05;;;14.02;;
71427;SDS011;59246;59.102;37.928;2022-07-29T06:03:42;46.75;;;15.27;;
71427;SDS011;59246;59.102;37.928;2022-07-29T06:06:08;14.30;;;6.22;;
71427;SDS011;59246;59.102;37.928;2022-07-29T06:08:34;11.30;;;5.22;;
71427;SDS011;59246;59.102;37.928;2022-07-29T06:11:01;9.70;;;4.60;;
71427;SDS011;59246;59.102;37.928;2022-07-29T06:13:27;19.63;;;9.00;;
71427;SDS011;59246;59.102;37.928;2022-07-29T06:15:53;8.82;;;4.93;;
71427;SDS011;59246;59.102;37.928;2022-07-29T06:18:19;16.65;;;5.90;;
71427;SDS011;59246;59.102;37.928;2022-07-29T06:20:46;12.13;;;4.78;;
71427;SDS011;59246;59.102;37.928;2022-07-29T06:23:11;14.23;;;4.85;;
71427;SDS011;59246;59.102;37.928;2022-07-29T06:25:39;7.32;;;3.25;;
71427;SDS011;59246;59.102;37.928;2022-07-29T06:28:05;7.20;;;2.97;;
71427;SDS011;59246;59.102;37.928;2022-07-29T06:30:31;7.28;;;2.60;;
71427;SDS011;59246;59.102;37.928;2022-07-29T06:32:57;5.05;;;2.60;;
71427;SDS011;59246;59.102;37.928;2022-07-29T06:35:23;5.22;;;2.92;;
71427;SDS011;59246;59.102;37.928;2022-07-29T06:37:48;11.10;;;2.60;;
71427;SDS011;59246;59.102;37.928;2022-07-29T06:40:14;7.00;;;3.00;;
71427;SDS011;59246;59.102;37.928;2022-07-29T06:42:58;8.60;;;3.30;;
71427;SDS011;59246;59.102;37.928;2022-07-29T06:45:24;7.82;;;3.30;;
71427;SDS011;59246;59.102;37.928;2022-07-29T06:47:49;8.25;;;3.30;;
71427;SDS011;59246;59.102;37.928;2022-07-29T06:50:15;4.18;;;2.50;;
71427;SDS011;59246;59.102;37.928;2022-07-29T06:52:41;13.93;;;3.00;;
71427;SDS011;59246;59.102;37.928;2022-07-29T06:55:07;7.88;;;2.60;;
71427;SDS011;59246;59.102;37.928;2022-07-29T06:57:33;9.57;;;2.80;;
71427;SDS011;59246;59.102;37.928;2022-07-29T06:59:59;6.82;;;2.50;;
71427;SDS011;59246;59.102;37.928;2022-07-29T07:02:25;8.80;;;2.40;;
71427;SDS011;59246;59.102;37.928;2022-07-29T07:04:51;15.32;;;4.55;;
71427;SDS011;59246;59.102;37.928;2022-07-29T07:07:17;9.23;;;2.92;;
71427;SDS011;59246;59.102;37.928;2022-07-29T07:09:43;14.43;;;3.75;;
71427;SDS011;59246;59.102;37.928;2022-07-29T07:12:08;16.67;;;4.25;;
71427;SDS011;59246;59.102;37.928;2022-07-29T07:14:34;12.13;;;3.15;;
71427;SDS011;59246;59.102;37.928;2022-07-29T07:17:00;9.80;;;3.47;;
71427;SDS011;59246;59.102;37.928;2022-07-29T07:19:28;6.47;;;3.22;;
71427;SDS011;59246;59.102;37.928;2022-07-29T07:21:53;5.15;;;2.92;;
71427;SDS011;59246;59.102;37.928;2022-07-29T07:24:19;6.20;;;1.90;;
71427;SDS011;59246;59.102;37.928;2022-07-29T07:26:45;3.30;;;1.88;;
71427;SDS011;59246;59.102;37.928;2022-07-29T07:29:11;2.67;;;1.55;;
71427;SDS011;59246;59.102;37.928;2022-07-29T07:31:37;2.42;;;2.05;;
71427;SDS011;59246;59.102;37.928;2022-07-29T07:34:03;3.97;;;2.10;;
71427;SDS011;59246;59.102;37.928;2022-07-29T07:36:29;5.05;;;1.80;;
71427;SDS011;59246;59.102;37.928;2022-07-29T07:38:54;3.40;;;1.92;;
71427;SDS011;59246;59.102;37.928;2022-07-29T07:41:21;2.78;;;1.60;;
71427;SDS011;59246;59.102;37.928;2022-07-29T07:43:47;2.42;;;1.55;;
71427;SDS011;59246;59.102;37.928;2022-07-29T07:46:13;4.07;;;2.50;;
71427;SDS011;59246;59.102;37.928;2022-07-29T07:48:38;3.63;;;2.05;;
71427;SDS011;59246;59.102;37.928;2022-07-29T07:51:04;3.53;;;2.00;;
71427;SDS011;59246;59.102;37.928;2022-07-29T07:53:30;2.67;;;1.60;;
71427;SDS011;59246;59.102;37.928;2022-07-29T07:55:55;4.18;;;1.40;;
71427;SDS011;59246;59.102;37.928;2022-07-29T07:58:21;5.13;;;2.50;;
71427;SDS011;59246;59.102;37.928;2022-07-29T08:00:47;6.22;;;2.00;;
71427;SDS011;59246;59.102;37.928;2022-07-29T08:03:13;2.03;;;1.35;;
71427;SDS011;59246;59.102;37.928;2022-07-29T08:05:39;5.63;;;1.70;;
71427;SDS011;59246;59.102;37.928;2022-07-29T08:08:05;5.13;;;1.83;;
71427;SDS011;59246;59.102;37.928;2022-07-29T08:10:31;1.90;;;1.30;;
71427;SDS011;59246;59.102;37.928;2022-07-29T08:13:15;4.30;;;1.33;;
71427;SDS011;59246;59.102;37.928;2022-07-29T08:15:41;1.48;;;1.25;;
71427;SDS011;59246;59.102;37.928;2022-07-29T08:18:08;2.67;;;1.40;;
71427;SDS011;59246;59.102;37.928;2022-07-29T08:20:34;1.92;;;1.38;;
71427;SDS011;59246;59.102;37.928;2022-07-29T08:23:02;5.50;;;1.42;;
71427;SDS011;59246;59.102;37.928;2022-07-29T08:25:29;2.97;;;1.40;;
71427;SDS011;59246;59.102;37.928;2022-07-29T08:27:55;13.10;;;2.85;;
71427;SDS011;59246;59.102;37.928;2022-07-29T08:30:21;5.85;;;1.58;;
71427;SDS011;59246;59.102;37.928;2022-07-29T08:32:47;3.10;;;1.40;;
71427;SDS011;59246;59.102;37.928;2022-07-29T08:35:15;4.20;;;1.65;;
71427;SDS011;59246;59.102;37.928;2022-07-29T08:37:41;4.90;;;1.60;;
71427;SDS011;59246;59.102;37.928;2022-07-29T08:40:07;1.50;;;1.00;;
71427;SDS011;59246;59.102;37.928;2022-07-29T08:42:32;5.88;;;2.25;;
71427;SDS011;59246;59.102;37.928;2022-07-29T08:44:58;5.30;;;1.45;;
71427;SDS011;59246;59.102;37.928;2022-07-29T08:47:24;5.15;;;1.20;;
71427;SDS011;59246;59.102;37.928;2022-07-29T08:49:51;7.72;;;1.58;;
71427;SDS011;59246;59.102;37.928;2022-07-29T08:52:17;3.28;;;1.30;;
71427;SDS011;59246;59.102;37.928;2022-07-29T08:54:44;4.30;;;1.42;;
71427;SDS011;59246;59.102;37.928;2022-07-29T08:57:14;3.88;;;1.48;;
71427;SDS011;59246;59.102;37.928;2022-07-29T08:59:58;1.23;;;1.08;;
71427;SDS011;59246;59.102;37.928;2022-07-29T09:02:28;4.80;;;1.63;;
71427;SDS011;59246;59.102;37.928;2022-07-29T09:04:58;5.07;;;1.63;;
71427;SDS011;59246;59.102;37.928;2022-07-29T09:07:25;2.28;;;1.65;;
71427;SDS011;59246;59.102;37.928;2022-07-29T09:09:51;2.45;;;1.35;;
71427;SDS011;59246;59.102;37.928;2022-07-29T09:12:16;8.57;;;1.77;;
71427;SDS011;59246;59.102;37.928;2022-07-29T09:14:42;2.70;;;1.40;;
71427;SDS011;59246;59.102;37.928;2022-07-29T09:17:08;6.45;;;1.42;;
71427;SDS011;59246;59.102;37.928;2022-07-29T09:19:36;6.43;;;1.85;;
71427;SDS011;59246;59.102;37.928;2022-07-29T09:22:06;9.40;;;1.73;;
71427;SDS011;59246;59.102;37.928;2022-07-29T09:27:06;6.90;;;1.58;;
71427;SDS011;59246;59.102;37.928;2022-07-29T09:29:35;7.82;;;1.73;;
71427;SDS011;59246;59.102;37.928;2022-07-29T09:32:05;2.67;;;1.30;;
71427;SDS011;59246;59.102;37.928;2022-07-29T09:34:34;7.45;;;2.28;;
71427;SDS011;59246;59.102;37.928;2022-07-29T09:37:00;17.08;;;1.83;;
71427;SDS011;59246;59.102;37.928;2022-07-29T09:39:30;5.35;;;1.10;;
71427;SDS011;59246;59.102;37.928;2022-07-29T09:41:58;3.97;;;1.10;;
71427;SDS011;59246;59.102;37.928;2022-07-29T09:44:25;4.40;;;1.35;;
71427;SDS011;59246;59.102;37.928;2022-07-29T09:47:02;2.15;;;1.20;;
71427;SDS011;59246;59.102;37.928;2022-07-29T09:49:32;3.95;;;1.20;;
71427;SDS011;59246;59.102;37.928;2022-07-29T09:52:15;1.90;;;1.30;;
71427;SDS011;59246;59.102;37.928;2022-07-29T09:54:42;4.15;;;1.20;;
71427;SDS011;59246;59.102;37.928;2022-07-29T09:57:09;2.33;;;1.10;;
71427;SDS011;59246;59.102;37.928;2022-07-29T09:59:57;7.45;;;1.52;;
71427;SDS011;59246;59.102;37.928;2022-07-29T10:02:31;4.82;;;1.35;;
71427;SDS011;59246;59.102;37.928;2022-07-29T10:04:59;3.17;;;1.27;;
71427;SDS011;59246;59.102;37.928;2022-07-29T10:07:26;2.38;;;1.17;;
71427;SDS011;59246;59.102;37.928;2022-07-29T10:10:07;3.75;;;1.13;;
71427;SDS011;59246;59.102;37.928;2022-07-29T10:12:33;1.45;;;1.10;;
71427;SDS011;59246;59.102;37.928;2022-07-29T10:15:01;1.40;;;1.20;;
71427;SDS011;59246;59.102;37.928;2022-07-29T10:17:27;2.35;;;1.20;;
71427;SDS011;59246;59.102;37.928;2022-07-29T10:19:54;3.97;;;1.30;;
71427;SDS011;59246;59.102;37.928;2022-07-29T10:22:20;5.05;;;1.23;;
71427;SDS011;59246;59.102;37.928;2022-07-29T10:24:46;8.77;;;1.08;;
71427;SDS011;59246;59.102;37.928;2022-07-29T10:27:13;3.90;;;1.25;;
71427;SDS011;59246;59.102;37.928;2022-07-29T10:29:38;1.02;;;0.93;;
71427;SDS011;59246;59.102;37.928;2022-07-29T10:34:51;2.35;;;0.82;;
71427;SDS011;59246;59.102;37.928;2022-07-29T10:37:26;7.47;;;1.08;;
71427;SDS011;59246;59.102;37.928;2022-07-29T10:40:22;7.05;;;1.52;;
71427;SDS011;59246;59.102;37.928;2022-07-29T10:43:22;0.80;;;0.80;;
71427;SDS011;59246;59.102;37.928;2022-07-29T10:45:55;1.05;;;0.90;;
71427;SDS011;59246;59.102;37.928;2022-07-29T10:48:22;7.05;;;1.45;;
71427;SDS011;59246;59.102;37.928;2022-07-29T10:50:59;4.57;;;1.15;;
71427;SDS011;59246;59.102;37.928;2022-07-29T11:01:52;11.48;;;1.33;;
71427;SDS011;59246;59.102;37.928;2022-07-29T11:07:09;6.18;;;1.13;;
71427;SDS011;59246;59.102;37.928;2022-07-29T11:09:36;2.03;;;1.05;;
71427;SDS011;59246;59.102;37.928;2022-07-29T11:12:02;2.22;;;0.95;;
71427;SDS011;59246;59.102;37.928;2022-07-29T11:17:18;3.80;;;0.90;;
71427;SDS011;59246;59.102;37.928;2022-07-29T11:19:44;5.25;;;1.05;;
71427;SDS011;59246;59.102;37.928;2022-07-29T11:22:10;4.65;;;1.15;;
71427;SDS011;59246;59.102;37.928;2022-07-29T11:24:37;2.95;;;1.00;;
71427;SDS011;59246;59.102;37.928;2022-07-29T11:29:32;1.38;;;1.00;;
71427;SDS011;59246;59.102;37.928;2022-07-29T11:32:12;10.13;;;1.67;;
71427;SDS011;59246;59.102;37.928;2022-07-29T11:34:42;6.25;;;1.10;;
71427;SDS011;59246;59.102;37.928;2022-07-29T11:39:35;3.53;;;1.23;;
71427;SDS011;59246;59.102;37.928;2022-07-29T11:50:11;3.45;;;1.30;;
71427;SDS011;59246;59.102;37.928;2022-07-29T11:52:39;1.92;;;1.13;;
71427;SDS011;59246;59.102;37.928;2022-07-29T11:55:16;3.20;;;1.00;;
71427;SDS011;59246;59.102;37.928;2022-07-29T11:57:47;3.47;;;1.02;;
71427;SDS011;59246;59.102;37.928;2022-07-29T12:00:20;4.25;;;0.85;;
71427;SDS011;59246;59.102;37.928;2022-07-29T12:02:52;2.40;;;1.20;;
71427;SDS011;59246;59.102;37.928;2022-07-29T12:05:18;1.50;;;0.80;;
71427;SDS011;59246;59.102;37.928;2022-07-29T12:07:44;1.77;;;1.02;;
71427;SDS011;59246;59.102;37.928;2022-07-29T12:10:10;2.80;;;1.38;;
71427;SDS011;59246;59.102;37.928;2022-07-29T12:12:36;3.78;;;1.10;;
71427;SDS011;59246;59.102;37.928;2022-07-29T12:15:13;2.97;;;1.27;;
71427;SDS011;59246;59.102;37.928;2022-07-29T12:17:40;3.33;;;0.95;;
71427;SDS011;59246;59.102;37.928;2022-07-29T12:20:07;2.83;;;0.98;;
71427;SDS011;59246;59.102;37.928;2022-07-29T12:22:33;3.58;;;1.17;;
71427;SDS011;59246;59.102;37.928;2022-07-29T12:25:05;7.47;;;1.60;;
71427;SDS011;59246;59.102;37.928;2022-07-29T12:27:40;1.83;;;1.30;;
71427;SDS011;59246;59.102;37.928;2022-07-29T12:30:12;10.25;;;1.73;;
71427;SDS011;59246;59.102;37.928;2022-07-29T12:32:44;5.90;;;1.48;;
71427;SDS011;59246;59.102;37.928;2022-07-29T12:35:12;1.40;;;0.93;;
71427;SDS011;59246;59.102;37.928;2022-07-29T12:37:50;2.00;;;0.80;;
71427;SDS011;59246;59.102;37.928;2022-07-29T12:40:17;2.53;;;0.98;;
71427;SDS011;59246;59.102;37.928;2022-07-29T12:45:32;2.20;;;1.38;;
71427;SDS011;59246;59.102;37.928;2022-07-29T12:47:58;2.65;;;1.13;;
71427;SDS011;59246;59.102;37.928;2022-07-29T12:50:24;6.63;;;1.40;;
71427;SDS011;59246;59.102;37.928;2022-07-29T12:52:50;3.03;;;1.10;;
71427;SDS011;59246;59.102;37.928;2022-07-29T12:55:15;13.48;;;1.92;;
71427;SDS011;59246;59.102;37.928;2022-07-29T12:58:01;2.30;;;0.90;;
71427;SDS011;59246;59.102;37.928;2022-07-29T13:00:27;18.33;;;2.30;;
71427;SDS011;59246;59.102;37.928;2022-07-29T13:02:57;1.02;;;0.75;;
71427;SDS011;59246;59.102;37.928;2022-07-29T13:05:24;3.70;;;1.10;;
71427;SDS011;59246;59.102;37.928;2022-07-29T13:08:13;0.97;;;0.67;;
71427;SDS011;59246;59.102;37.928;2022-07-29T13:10:40;1.40;;;1.08;;
71427;SDS011;59246;59.102;37.928;2022-07-29T13:13:08;5.20;;;1.00;;
71427;SDS011;59246;59.102;37.928;2022-07-29T13:15:38;1.25;;;0.60;;
71427;SDS011;59246;59.102;37.928;2022-07-29T13:18:25;2.35;;;0.82;;
71427;SDS011;59246;59.102;37.928;2022-07-29T13:21:11;6.13;;;0.70;;
71427;SDS011;59246;59.102;37.928;2022-07-29T13:23:39;0.60;;;0.55;;
71427;SDS011;59246;59.102;37.928;2022-07-29T13:26:05;1.05;;;0.40;;
71427;SDS011;59246;59.102;37.928;2022-07-29T13:28:36;1.50;;;0.50;;
71427;SDS011;59246;59.102;37.928;2022-07-29T13:31:02;4.15;;;2.03;;
71427;SDS011;59246;59.102;37.928;2022-07-29T13:33:28;1.73;;;0.60;;
71427;SDS011;59246;59.102;37.928;2022-07-29T13:35:55;4.63;;;0.73;;
71427;SDS011;59246;59.102;37.928;2022-07-29T13:38:21;1.25;;;1.15;;
71427;SDS011;59246;59.102;37.928;2022-07-29T13:40:47;0.85;;;0.45;;
71427;SDS011;59246;59.102;37.928;2022-07-29T13:43:12;0.65;;;0.43;;
71427;SDS011;59246;59.102;37.928;2022-07-29T13:45:38;1.23;;;0.60;;
71427;SDS011;59246;59.102;37.928;2022-07-29T13:48:04;3.97;;;0.65;;
71427;SDS011;59246;59.102;37.928;2022-07-29T13:50:31;2.95;;;0.85;;
71427;SDS011;59246;59.102;37.928;2022-07-29T13:52:58;2.53;;;0.60;;
71427;SDS011;59246;59.102;37.928;2022-07-29T13:55:24;3.55;;;0.70;;
71427;SDS011;59246;59.102;37.928;2022-07-29T13:57:50;1.98;;;0.90;;
71427;SDS011;59246;59.102;37.928;2022-07-29T14:00:16;10.52;;;1.23;;
71427;SDS011;59246;59.102;37.928;2022-07-29T14:02:44;1.70;;;0.90;;
71427;SDS011;59246;59.102;37.928;2022-07-29T14:05:10;1.42;;;0.70;;
71427;SDS011;59246;59.102;37.928;2022-07-29T14:07:38;0.75;;;0.50;;
71427;SDS011;59246;59.102;37.928;2022-07-29T14:10:04;2.50;;;0.50;;
71427;SDS011;59246;59.102;37.928;2022-07-29T14:12:31;1.85;;;0.50;;
71427;SDS011;59246;59.102;37.928;2022-07-29T14:14:56;0.60;;;0.45;;
71427;SDS011;59246;59.102;37.928;2022-07-29T14:17:22;1.75;;;0.50;;
71427;SDS011;59246;59.102;37.928;2022-07-29T14:19:48;1.13;;;1.02;;
71427;SDS011;59246;59.102;37.928;2022-07-29T14:22:14;0.93;;;0.70;;
71427;SDS011;59246;59.102;37.928;2022-07-29T14:24:44;2.33;;;1.48;;
71427;SDS011;59246;59.102;37.928;2022-07-29T14:27:10;6.22;;;2.00;;
71427;SDS011;59246;59.102;37.928;2022-07-29T14:29:36;0.47;;;0.47;;
71427;SDS011;59246;59.102;37.928;2022-07-29T14:32:02;2.65;;;0.50;;
71427;SDS011;59246;59.102;37.928;2022-07-29T14:34:29;2.63;;;0.50;;
71427;SDS011;59246;59.102;37.928;2022-07-29T14:36:54;1.40;;;0.60;;
71427;SDS011;59246;59.102;37.928;2022-07-29T14:39:23;0.85;;;0.60;;
71427;SDS011;59246;59.102;37.928;2022-07-29T14:41:49;1.05;;;0.65;;
71427;SDS011;59246;59.102;37.928;2022-07-29T14:44:16;0.45;;;0.45;;
71427;SDS011;59246;59.102;37.928;2022-07-29T14:46:43;2.70;;;0.90;;
71427;SDS011;59246;59.102;37.928;2022-07-29T14:49:09;1.65;;;0.80;;
71427;SDS011;59246;59.102;37.928;2022-07-29T14:51:35;3.05;;;1.48;;
71427;SDS011;59246;59.102;37.928;2022-07-29T14:54:00;0.45;;;0.45;;
71427;SDS011;59246;59.102;37.928;2022-07-29T14:56:26;2.78;;;0.80;;
71427;SDS011;59246;59.102;37.928;2022-07-29T14:58:54;0.95;;;0.60;;
71427;SDS011;59246;59.102;37.928;2022-07-29T15:01:21;3.38;;;0.95;;
71427;SDS011;59246;59.102;37.928;2022-07-29T15:03:46;1.55;;;0.60;;
71427;SDS011;59246;59.102;37.928;2022-07-29T15:06:12;1.38;;;0.60;;
71427;SDS011;59246;59.102;37.928;2022-07-29T15:08:38;4.57;;;0.70;;
71427;SDS011;59246;59.102;37.928;2022-07-29T15:11:04;4.28;;;0.63;;
71427;SDS011;59246;59.102;37.928;2022-07-29T15:13:29;2.17;;;0.57;;
71427;SDS011;59246;59.102;37.928;2022-07-29T15:15:55;0.93;;;0.90;;
71427;SDS011;59246;59.102;37.928;2022-07-29T15:18:21;0.60;;;0.60;;
71427;SDS011;59246;59.102;37.928;2022-07-29T15:20:47;2.58;;;0.68;;
71427;SDS011;59246;59.102;37.928;2022-07-29T15:23:13;0.88;;;0.60;;
71427;SDS011;59246;59.102;37.928;2022-07-29T15:25:39;5.65;;;0.70;;